Time;durP1;ratioP1;P1;durP2;ratioP2;P2;SDS_P1;SDS_P2;PMS_P1;PMS_P2;Temp;Humidity;BMP_temperature;BMP_pressure;BME280_temperature;BME280_humidity;BME280_pressure;Samples;Min_cycle;Max_cycle;Signal;HPM_P1;HPM_P2
2024/02/15 00:01:06;;;;;;;7.27;5.60;;;;;;;;;;4915032;29;20749;-81
2024/02/15 00:03:35;;;;;;;9.10;5.70;;;;;;;;;;4915386;29;20636;-81
2024/02/15 00:06:02;;;;;;;8.63;5.57;;;;;;;;;;4914883;29;20589;-81
2024/02/15 00:08:32;;;;;;;8.03;5.83;;;;;;;;;;4915114;29;20256;-81
2024/02/15 00:10:59;;;;;;;6.30;5.00;;;;;;;;;;4915459;29;20256;-80
2024/02/15 00:13:27;;;;;;;7.83;5.50;;;;;;;;;;4914727;29;20606;-80
2024/02/15 00:15:54;;;;;;;11.13;5.87;;;;;;;;;;4914825;29;20662;-80
2024/02/15 00:18:21;;;;;;;9.30;5.77;;;;;;;;;;4915251;29;20295;-80
2024/02/15 00:20:48;;;;;;;7.47;5.30;;;;;;;;;;4914725;29;20209;-81
2024/02/15 00:23:16;;;;;;;9.30;6.00;;;;;;;;;;4914072;29;20201;-81
2024/02/15 00:25:45;;;;;;;7.47;5.63;;;;;;;;;;4895957;29;20245;-81
2024/02/15 00:28:12;;;;;;;7.40;5.83;;;;;;;;;;4895860;29;20686;-80
2024/02/15 00:30:39;;;;;;;9.90;5.83;;;;;;;;;;4895641;29;20212;-81
2024/02/15 00:33:07;;;;;;;8.80;6.50;;;;;;;;;;4895858;29;20197;-81
2024/02/15 00:35:34;;;;;;;8.90;6.10;;;;;;;;;;4896437;29;20745;-81
2024/02/15 00:38:02;;;;;;;7.63;5.93;;;;;;;;;;4895933;29;20208;-82
2024/02/15 00:40:29;;;;;;;9.60;6.00;;;;;;;;;;4896186;29;20375;-81
2024/02/15 00:42:58;;;;;;;7.97;6.23;;;;;;;;;;4895379;29;20292;-80
2024/02/15 00:45:25;;;;;;;8.87;6.27;;;;;;;;;;4896367;29;20205;-80
2024/02/15 00:47:53;;;;;;;7.20;6.00;;;;;;;;;;4896344;29;20235;-81
2024/02/15 00:50:21;;;;;;;8.40;6.37;;;;;;;;;;4895967;29;20253;-81
2024/02/15 00:52:48;;;;;;;11.50;5.90;;;;;;;;;;4896081;29;20667;-80
2024/02/15 00:55:16;;;;;;;7.37;6.10;;;;;;;;;;4895754;29;20296;-81
2024/02/15 00:57:43;;;;;;;8.63;6.50;;;;;;;;;;4895628;29;20209;-82
2024/02/15 01:00:12;;;;;;;8.87;6.70;;;;;;;;;;4895805;29;20288;-82
2024/02/15 01:02:40;;;;;;;8.33;6.40;;;;;;;;;;4895771;29;20197;-81
2024/02/15 01:05:07;;;;;;;9.23;6.20;;;;;;;;;;4895454;29;20225;-81
2024/02/15 01:07:34;;;;;;;8.73;6.77;;;;;;;;;;4895977;29;20324;-80
2024/02/15 01:10:03;;;;;;;9.00;6.60;;;;;;;;;;4895501;29;20302;-82
2024/02/15 01:12:30;;;;;;;7.87;6.87;;;;;;;;;;4895559;29;20244;-81
2024/02/15 01:14:58;;;;;;;16.47;7.10;;;;;;;;;;4895900;29;20746;-81
2024/02/15 01:17:27;;;;;;;8.00;6.40;;;;;;;;;;4895620;29;20702;-81
2024/02/15 01:19:54;;;;;;;8.10;6.10;;;;;;;;;;4895944;29;20292;-80
2024/02/15 01:22:23;;;;;;;8.17;6.10;;;;;;;;;;4895563;29;20240;-81
2024/02/15 01:24:50;;;;;;;10.27;7.07;;;;;;;;;;4895925;29;20292;-81
2024/02/15 01:27:17;;;;;;;8.33;6.67;;;;;;;;;;4898500;29;20260;-81
2024/02/15 01:29:45;;;;;;;9.53;7.07;;;;;;;;;;4898964;29;20209;-81
2024/02/15 01:32:12;;;;;;;8.13;6.60;;;;;;;;;;4899370;29;20205;-80
2024/02/15 01:34:42;;;;;;;9.37;6.37;;;;;;;;;;4899198;29;20288;-80
2024/02/15 01:37:10;;;;;;;7.97;6.43;;;;;;;;;;4899009;29;20216;-81
2024/02/15 01:39:37;;;;;;;7.53;6.00;;;;;;;;;;4899158;29;20198;-80
2024/02/15 01:42:05;;;;;;;9.77;6.30;;;;;;;;;;4898493;29;20303;-81
2024/02/15 01:44:32;;;;;;;8.10;6.23;;;;;;;;;;4899137;29;20231;-81
2024/02/15 01:46:59;;;;;;;7.43;5.90;;;;;;;;;;4899100;29;20232;-81
2024/02/15 01:49:26;;;;;;;8.30;6.30;;;;;;;;;;4898755;29;20682;-80
2024/02/15 01:51:58;;;;;;;7.57;5.63;;;;;;;;;;4898820;29;20304;-81
2024/02/15 01:54:25;;;;;;;7.90;5.80;;;;;;;;;;4898471;29;20215;-82
2024/02/15 01:56:52;;;;;;;6.80;5.90;;;;;;;;;;4898754;29;20205;-81
2024/02/15 01:59:19;;;;;;;7.03;5.80;;;;;;;;;;4898726;29;20240;-81
2024/02/15 02:01:47;;;;;;;8.53;5.90;;;;;;;;;;4898289;29;20240;-80
2024/02/15 02:04:14;;;;;;;6.87;5.90;;;;;;;;;;4898648;29;20624;-81
2024/02/15 02:06:41;;;;;;;8.07;5.67;;;;;;;;;;4898693;29;20599;-81
2024/02/15 02:09:14;;;;;;;6.93;5.57;;;;;;;;;;4898462;29;20202;-81
2024/02/15 02:11:40;;;;;;;7.30;5.77;;;;;;;;;;4898091;29;20208;-81
2024/02/15 02:14:07;;;;;;;8.33;5.90;;;;;;;;;;4898688;29;20220;-81
2024/02/15 02:16:35;;;;;;;9.80;5.67;;;;;;;;;;4897841;29;20213;-81
2024/02/15 02:19:07;;;;;;;7.00;5.33;;;;;;;;;;4898431;29;20265;-81
2024/02/15 02:21:35;;;;;;;6.10;5.30;;;;;;;;;;4897826;29;20307;-81
2024/02/15 02:24:06;;;;;;;7.57;5.27;;;;;;;;;;4897459;29;20671;-80
2024/02/15 02:26:35;;;;;;;7.63;5.40;;;;;;;;;;4897525;29;20233;-80
2024/02/15 02:29:04;;;;;;;7.37;5.70;;;;;;;;;;4898006;29;20253;-81
2024/02/15 02:31:34;;;;;;;7.90;5.27;;;;;;;;;;4897978;29;20201;-80
2024/02/15 02:34:01;;;;;;;7.67;5.53;;;;;;;;;;4898036;29;20205;-80
2024/02/15 02:36:29;;;;;;;8.13;5.03;;;;;;;;;;4897377;29;20636;-80
2024/02/15 02:39:00;;;;;;;7.70;5.13;;;;;;;;;;4897806;29;20205;-81
2024/02/15 02:41:28;;;;;;;6.30;5.23;;;;;;;;;;4897905;29;20232;-80
2024/02/15 02:43:56;;;;;;;6.77;5.03;;;;;;;;;;4897571;29;20984;-81
2024/02/15 02:46:24;;;;;;;8.43;5.47;;;;;;;;;;4897648;29;20235;-81
2024/02/15 02:48:51;;;;;;;7.67;5.20;;;;;;;;;;4897427;29;20354;-81
2024/02/15 02:51:19;;;;;;;6.70;5.50;;;;;;;;;;4898058;29;20205;-80
2024/02/15 02:53:46;;;;;;;10.27;5.43;;;;;;;;;;4897278;29;20243;-80
2024/02/15 02:56:13;;;;;;;8.37;5.37;;;;;;;;;;4897680;29;20205;-80
2024/02/15 02:58:42;;;;;;;6.07;5.43;;;;;;;;;;4897570;29;20208;-81
2024/02/15 03:01:10;;;;;;;7.70;5.50;;;;;;;;;;4897610;29;20288;-81
2024/02/15 03:03:39;;;;;;;8.23;5.20;;;;;;;;;;4897610;29;20202;-81
2024/02/15 03:06:07;;;;;;;8.50;5.20;;;;;;;;;;4897119;29;20209;-80
2024/02/15 03:08:34;;;;;;;7.57;5.20;;;;;;;;;;4897314;29;20301;-80
2024/02/15 03:11:02;;;;;;;6.27;5.17;;;;;;;;;;4897130;29;20671;-80
2024/02/15 03:13:29;;;;;;;7.03;5.27;;;;;;;;;;4897404;29;20208;-80
2024/02/15 03:15:56;;;;;;;6.93;5.33;;;;;;;;;;4896943;29;20288;-81
2024/02/15 03:18:25;;;;;;;7.07;5.13;;;;;;;;;;4897602;29;20304;-81
2024/02/15 03:20:52;;;;;;;8.10;5.37;;;;;;;;;;4897348;29;20204;-79
2024/02/15 03:23:19;;;;;;;8.80;5.40;;;;;;;;;;4896755;29;20742;-79
2024/02/15 03:25:46;;;;;;;7.70;5.40;;;;;;;;;;4912149;29;20682;-80
2024/02/15 03:28:15;;;;;;;7.73;5.47;;;;;;;;;;4915752;29;20240;-80
2024/02/15 03:30:42;;;;;;;6.20;5.03;;;;;;;;;;4915688;29;20283;-80
2024/02/15 03:33:09;;;;;;;6.77;5.40;;;;;;;;;;4915929;29;20197;-79
2024/02/15 03:35:38;;;;;;;6.43;4.83;;;;;;;;;;4915951;29;20224;-80
2024/02/15 03:38:06;;;;;;;6.90;4.80;;;;;;;;;;4892144;29;20305;-81
2024/02/15 03:40:34;;;;;;;7.70;5.20;;;;;;;;;;4893677;29;20272;-80
2024/02/15 03:43:01;;;;;;;6.07;5.00;;;;;;;;;;4896898;29;20237;-81
2024/02/15 03:45:28;;;;;;;7.23;5.03;;;;;;;;;;4896835;29;20615;-80
2024/02/15 03:47:56;;;;;;;5.27;4.67;;;;;;;;;;4896178;29;20268;-81
2024/02/15 03:50:23;;;;;;;7.97;5.00;;;;;;;;;;4896675;29;20216;-80
2024/02/15 03:52:52;;;;;;;8.97;5.40;;;;;;;;;;4896402;29;20284;-81
2024/02/15 03:55:22;;;;;;;6.20;5.37;;;;;;;;;;4896732;29;20237;-80
2024/02/15 03:57:49;;;;;;;5.20;4.70;;;;;;;;;;4896049;29;20292;-81
2024/02/15 04:00:20;;;;;;;7.37;5.00;;;;;;;;;;4896319;29;20300;-81
2024/02/15 04:02:48;;;;;;;8.10;5.43;;;;;;;;;;4896715;29;20627;-81
2024/02/15 04:05:17;;;;;;;7.20;5.13;;;;;;;;;;4896506;29;20288;-81
2024/02/15 04:07:45;;;;;;;7.97;5.00;;;;;;;;;;4896118;29;20327;-80
2024/02/15 04:10:13;;;;;;;7.93;5.33;;;;;;;;;;4896419;29;20211;-81
2024/02/15 04:12:41;;;;;;;6.30;4.70;;;;;;;;;;4896168;29;20587;-81
2024/02/15 04:15:13;;;;;;;6.00;5.07;;;;;;;;;;4896014;29;20201;-82
2024/02/15 04:17:40;;;;;;;6.63;4.73;;;;;;;;;;4896031;29;20686;-81
2024/02/15 04:20:09;;;;;;;6.53;4.73;;;;;;;;;;4896402;29;20209;-82
2024/02/15 04:22:37;;;;;;;8.20;5.23;;;;;;;;;;4896260;29;20208;-82
2024/02/15 04:25:05;;;;;;;7.37;5.20;;;;;;;;;;4895950;29;20983;-80
2024/02/15 04:27:34;;;;;;;6.23;4.70;;;;;;;;;;4896136;29;20271;-82
2024/02/15 04:30:04;;;;;;;7.43;5.10;;;;;;;;;;4895892;29;20231;-81
2024/02/15 04:32:33;;;;;;;7.23;4.70;;;;;;;;;;4896177;29;20212;-82
2024/02/15 04:35:01;;;;;;;6.73;4.70;;;;;;;;;;4894822;29;20296;-82
2024/02/15 04:37:31;;;;;;;5.97;5.00;;;;;;;;;;4896009;29;20212;-82
2024/02/15 04:40:06;;;;;;;6.07;5.00;;;;;;;;;;4896016;29;20690;-81
2024/02/15 04:42:37;;;;;;;5.93;4.80;;;;;;;;;;4896458;29;20228;-82
2024/02/15 04:45:05;;;;;;;6.50;4.83;;;;;;;;;;4896108;29;20756;-82
2024/02/15 04:47:32;;;;;;;7.43;5.03;;;;;;;;;;4896119;29;20233;-82
2024/02/15 04:49:59;;;;;;;8.00;4.80;;;;;;;;;;4895383;29;20213;-81
2024/02/15 04:52:27;;;;;;;6.50;4.80;;;;;;;;;;4895863;29;20288;-81
2024/02/15 04:54:55;;;;;;;7.23;4.70;;;;;;;;;;4895577;29;20257;-82
2024/02/15 04:57:22;;;;;;;6.87;5.00;;;;;;;;;;4896133;29;20201;-81
2024/02/15 04:59:50;;;;;;;7.73;5.00;;;;;;;;;;4897982;29;20579;-81
2024/02/15 05:02:19;;;;;;;6.93;5.00;;;;;;;;;;4899731;29;20296;-81
2024/02/15 05:04:47;;;;;;;7.83;4.53;;;;;;;;;;4899396;29;20209;-80
2024/02/15 05:07:18;;;;;;;7.53;4.43;;;;;;;;;;4899606;29;20359;-82
2024/02/15 05:09:45;;;;;;;6.93;4.63;;;;;;;;;;4899528;29;20209;-81
2024/02/15 05:12:23;;;;;;;5.83;4.60;;;;;;;;;;4899596;29;20321;-82
2024/02/15 05:14:53;;;;;;;7.20;4.47;;;;;;;;;;4899552;29;20212;-81
2024/02/15 05:17:21;;;;;;;5.07;4.40;;;;;;;;;;4899508;29;20213;-80
2024/02/15 05:19:48;;;;;;;7.50;4.83;;;;;;;;;;4898701;29;20746;-81
2024/02/15 05:22:16;;;;;;;5.80;4.83;;;;;;;;;;4899754;29;20225;-80
2024/02/15 05:24:43;;;;;;;6.30;4.33;;;;;;;;;;4899184;29;21055;-81
2024/02/15 05:27:10;;;;;;;7.20;4.83;;;;;;;;;;4899208;29;20232;-79
2024/02/15 05:29:39;;;;;;;5.47;4.10;;;;;;;;;;4899335;29;20787;-79
2024/02/15 05:32:09;;;;;;;6.13;4.70;;;;;;;;;;4898190;29;20233;-81
2024/02/15 05:34:39;;;;;;;6.17;4.53;;;;;;;;;;4898841;29;20203;-80
2024/02/15 05:37:07;;;;;;;6.33;4.67;;;;;;;;;;4899166;29;20265;-81
2024/02/15 05:39:34;;;;;;;6.33;4.60;;;;;;;;;;4899051;29;20197;-81
2024/02/15 05:42:01;;;;;;;6.37;4.77;;;;;;;;;;4898905;29;20890;-81
2024/02/15 05:44:29;;;;;;;5.67;4.10;;;;;;;;;;4899178;29;20631;-81
2024/02/15 05:46:56;;;;;;;6.17;5.03;;;;;;;;;;4898786;29;20228;-81
2024/02/15 05:49:25;;;;;;;7.07;4.40;;;;;;;;;;4899064;29;20294;-81
2024/02/15 05:51:53;;;;;;;7.63;4.90;;;;;;;;;;4898491;29;20202;-80
2024/02/15 05:54:22;;;;;;;7.20;4.73;;;;;;;;;;4898537;29;20201;-80
2024/02/15 05:56:51;;;;;;;7.63;4.57;;;;;;;;;;4898684;29;20201;-80
2024/02/15 05:59:20;;;;;;;7.47;4.60;;;;;;;;;;4898802;29;20209;-80
2024/02/15 06:01:48;;;;;;;5.70;4.50;;;;;;;;;;4898996;29;20205;-80
2024/02/15 06:04:16;;;;;;;6.53;4.40;;;;;;;;;;4898568;29;20276;-80
2024/02/15 06:06:48;;;;;;;7.87;4.80;;;;;;;;;;4898821;29;20225;-81
2024/02/15 06:09:15;;;;;;;6.20;4.60;;;;;;;;;;4898435;29;20320;-80
2024/02/15 06:11:45;;;;;;;6.40;4.23;;;;;;;;;;4897944;29;20208;-81
2024/02/15 06:14:12;;;;;;;7.53;4.40;;;;;;;;;;4898201;29;20209;-79
2024/02/15 06:16:43;;;;;;;7.50;4.40;;;;;;;;;;4897584;29;20303;-81
2024/02/15 06:19:10;;;;;;;6.13;4.33;;;;;;;;;;4898603;29;20237;-80
2024/02/15 06:21:38;;;;;;;6.10;3.90;;;;;;;;;;4898345;29;20236;-80
2024/02/15 06:24:06;;;;;;;6.70;3.93;;;;;;;;;;4900120;29;20205;-80
2024/02/15 06:26:34;;;;;;;6.80;4.30;;;;;;;;;;4902337;29;20208;-81
2024/02/15 06:40:23;;;;;;;4.93;3.47;;;;;;;;;;4915289;29;20738;-81
2024/02/15 06:42:50;;;;;;;6.33;3.80;;;;;;;;;;4899422;29;20675;-80
2024/02/15 06:45:19;;;;;;;6.33;3.77;;;;;;;;;;4901720;29;20232;-82
2024/02/15 06:47:46;;;;;;;6.67;3.83;;;;;;;;;;4897344;29;20236;-80
2024/02/15 06:50:14;;;;;;;8.10;3.80;;;;;;;;;;4871340;29;20920;-80
2024/02/15 06:52:41;;;;;;;5.83;3.53;;;;;;;;;;4895326;29;20705;-81
2024/02/15 06:55:11;;;;;;;7.20;3.87;;;;;;;;;;4891491;29;20209;-81
2024/02/15 06:57:40;;;;;;;5.07;3.50;;;;;;;;;;4894066;29;20207;-80
2024/02/15 07:00:09;;;;;;;6.73;3.30;;;;;;;;;;4895221;29;20207;-80
2024/02/15 07:02:36;;;;;;;5.33;3.20;;;;;;;;;;4892703;29;20237;-80
2024/02/15 07:05:03;;;;;;;4.20;2.87;;;;;;;;;;4892800;29;20212;-80
2024/02/15 07:07:31;;;;;;;4.67;2.80;;;;;;;;;;4892725;29;20654;-80
2024/02/15 07:09:58;;;;;;;6.30;3.60;;;;;;;;;;4894468;29;20205;-80
2024/02/15 07:12:26;;;;;;;6.00;3.30;;;;;;;;;;4892050;29;20773;-80
2024/02/15 07:14:54;;;;;;;4.47;2.73;;;;;;;;;;4892442;29;20209;-80
2024/02/15 07:17:22;;;;;;;5.23;2.90;;;;;;;;;;4890116;29;20575;-81
2024/02/15 07:19:50;;;;;;;3.97;2.70;;;;;;;;;;4892546;29;20205;-80
2024/02/15 07:22:17;;;;;;;4.37;3.00;;;;;;;;;;4877631;29;20213;-81
2024/02/15 07:24:44;;;;;;;5.60;3.07;;;;;;;;;;4892204;29;20247;-81
2024/02/15 07:27:12;;;;;;;4.93;2.40;;;;;;;;;;4892084;29;20201;-81
2024/02/15 07:29:40;;;;;;;6.30;2.77;;;;;;;;;;4892013;29;20229;-80
2024/02/15 07:32:09;;;;;;;4.70;2.90;;;;;;;;;;4892401;29;20209;-81
2024/02/15 07:34:36;;;;;;;5.93;2.93;;;;;;;;;;4892937;29;20288;-81
2024/02/15 07:37:04;;;;;;;3.93;2.70;;;;;;;;;;4892708;29;20300;-81
2024/02/15 07:39:31;;;;;;;4.27;2.47;;;;;;;;;;4892129;29;20292;-81
2024/02/15 07:41:58;;;;;;;4.80;2.60;;;;;;;;;;4891016;29;20296;-81
2024/02/15 07:44:29;;;;;;;4.90;2.87;;;;;;;;;;4891511;29;20217;-81
2024/02/15 07:46:57;;;;;;;3.80;2.40;;;;;;;;;;4892469;29;20209;-80
2024/02/15 07:49:25;;;;;;;7.57;2.67;;;;;;;;;;4892000;29;20266;-81
2024/02/15 07:51:52;;;;;;;4.63;2.43;;;;;;;;;;4891519;29;20288;-81
2024/02/15 07:54:20;;;;;;;5.13;2.50;;;;;;;;;;4892010;29;20205;-80
2024/02/15 07:56:48;;;;;;;3.90;2.20;;;;;;;;;;4891640;29;20209;-81
2024/02/15 07:59:16;;;;;;;4.10;2.10;;;;;;;;;;4891452;29;20209;-82
2024/02/15 08:01:45;;;;;;;5.03;2.10;;;;;;;;;;4892097;29;20608;-80
2024/02/15 08:04:13;;;;;;;4.33;2.10;;;;;;;;;;4891211;29;20679;-81
2024/02/15 08:06:41;;;;;;;5.80;2.40;;;;;;;;;;4891136;29;20210;-81
2024/02/15 08:09:13;;;;;;;4.30;2.40;;;;;;;;;;4891580;29;20232;-82
2024/02/15 08:11:40;;;;;;;5.77;2.17;;;;;;;;;;4892135;29;20221;-81
2024/02/15 08:14:10;;;;;;;3.40;2.00;;;;;;;;;;4891607;29;20213;-82
2024/02/15 08:16:39;;;;;;;3.00;2.00;;;;;;;;;;4891444;29;20208;-81
2024/02/15 08:19:07;;;;;;;4.03;2.20;;;;;;;;;;4891786;29;20260;-81
2024/02/15 08:21:36;;;;;;;4.23;1.97;;;;;;;;;;4891530;29;20300;-81
2024/02/15 08:24:05;;;;;;;4.93;2.20;;;;;;;;;;4892775;29;20205;-81
2024/02/15 08:26:33;;;;;;;4.40;2.20;;;;;;;;;;4892128;29;20205;-79
2024/02/15 08:29:00;;;;;;;4.60;2.20;;;;;;;;;;4891665;29;20773;-80
2024/02/15 08:31:27;;;;;;;3.13;2.10;;;;;;;;;;4891335;29;20217;-80
2024/02/15 08:33:54;;;;;;;4.13;2.20;;;;;;;;;;4891132;29;20308;-81
2024/02/15 08:36:22;;;;;;;2.87;1.97;;;;;;;;;;4891205;29;20650;-80
2024/02/15 08:38:51;;;;;;;4.50;2.20;;;;;;;;;;4891614;29;20219;-80
2024/02/15 08:41:20;;;;;;;4.63;2.13;;;;;;;;;;4891400;29;20211;-82
2024/02/15 08:43:48;;;;;;;3.23;2.23;;;;;;;;;;4891476;29;20208;-81
2024/02/15 08:46:15;;;;;;;3.53;2.10;;;;;;;;;;4890819;29;20209;-82
2024/02/15 08:48:43;;;;;;;3.17;1.90;;;;;;;;;;4891153;29;20264;-81
2024/02/15 08:51:10;;;;;;;5.03;2.47;;;;;;;;;;4890738;29;20209;-80
2024/02/15 08:53:37;;;;;;;3.17;2.03;;;;;;;;;;4891597;29;20205;-80
2024/02/15 08:56:05;;;;;;;3.03;1.80;;;;;;;;;;4891483;29;20225;-80
2024/02/15 08:58:34;;;;;;;5.20;2.10;;;;;;;;;;4891465;29;20746;-81
2024/02/15 09:01:02;;;;;;;3.50;2.00;;;;;;;;;;4892597;29;20206;-81
2024/02/15 09:03:30;;;;;;;4.73;2.27;;;;;;;;;;4891598;29;20220;-79
2024/02/15 09:05:59;;;;;;;3.30;1.90;;;;;;;;;;4890685;29;20304;-81
2024/02/15 09:08:26;;;;;;;3.30;2.23;;;;;;;;;;4890964;29;20245;-82
2024/02/15 09:10:53;;;;;;;5.00;2.20;;;;;;;;;;4891325;29;20205;-81
2024/02/15 09:13:22;;;;;;;4.13;2.50;;;;;;;;;;4890731;29;20228;-81
2024/02/15 09:15:51;;;;;;;4.63;2.40;;;;;;;;;;4891190;29;20311;-81
2024/02/15 09:18:18;;;;;;;6.37;2.17;;;;;;;;;;4890875;29;20209;-81
2024/02/15 09:20:48;;;;;;;3.90;2.30;;;;;;;;;;4890423;29;20213;-81
2024/02/15 09:23:16;;;;;;;3.70;2.33;;;;;;;;;;4890953;29;20240;-81
2024/02/15 09:25:43;;;;;;;5.87;2.10;;;;;;;;;;4891056;29;20328;-81
2024/02/15 09:28:11;;;;;;;2.72;2.08;;;;;;;;;;4892091;29;20284;-82
2024/02/15 09:30:38;;;;;;;6.13;2.50;;;;;;;;;;4891073;29;20296;-80
2024/02/15 09:33:08;;;;;;;3.28;2.00;;;;;;;;;;4891931;29;20208;-81
2024/02/15 09:35:35;;;;;;;5.05;2.03;;;;;;;;;;4892323;29;20197;-81
2024/02/15 09:38:02;;;;;;;4.25;2.45;;;;;;;;;;4888508;29;20304;-81
2024/02/15 09:40:30;;;;;;;3.92;2.10;;;;;;;;;;4891946;29;20304;-80
2024/02/15 09:42:57;;;;;;;4.72;2.10;;;;;;;;;;4891848;29;20265;-79
2024/02/15 09:45:24;;;;;;;3.80;2.47;;;;;;;;;;4891301;29;20205;-80
2024/02/15 09:47:52;;;;;;;3.45;2.47;;;;;;;;;;4894547;29;20296;-80
2024/02/15 09:50:21;;;;;;;3.55;2.13;;;;;;;;;;4894135;29;20260;-81
2024/02/15 09:52:51;;;;;;;3.80;2.10;;;;;;;;;;4895154;29;20690;-80
2024/02/15 09:55:18;;;;;;;4.25;2.15;;;;;;;;;;4894158;29;20300;-81
2024/02/15 09:57:47;;;;;;;4.55;2.30;;;;;;;;;;4894860;29;20270;-81
2024/02/15 10:00:15;;;;;;;3.67;2.10;;;;;;;;;;4895422;29;20682;-81
2024/02/15 10:02:44;;;;;;;3.13;2.17;;;;;;;;;;4893934;29;20299;-81
2024/02/15 10:05:12;;;;;;;3.53;2.00;;;;;;;;;;4894559;29;20209;-81
2024/02/15 10:07:40;;;;;;;4.50;2.55;;;;;;;;;;4894967;29;20201;-82
2024/02/15 10:10:26;;;;;;;3.67;2.15;;;;;;;;;;4894443;29;20316;-81
2024/02/15 10:12:54;;;;;;;3.72;2.20;;;;;;;;;;4894736;29;20217;-80
2024/02/15 10:15:35;;;;;;;5.25;2.17;;;;;;;;;;4893987;29;20212;-80
2024/02/15 10:18:03;;;;;;;4.15;2.30;;;;;;;;;;4891788;29;20240;-80
2024/02/15 10:20:31;;;;;;;3.15;2.22;;;;;;;;;;4893931;29;20265;-81
2024/02/15 10:23:12;;;;;;;5.20;2.60;;;;;;;;;;4894420;29;20213;-80
2024/02/15 10:25:40;;;;;;;4.13;2.47;;;;;;;;;;4894111;29;20636;-82
2024/02/15 10:28:07;;;;;;;3.95;2.60;;;;;;;;;;4894658;29;20243;-81
2024/02/15 10:30:35;;;;;;;4.30;2.75;;;;;;;;;;4894367;29;20260;-82
2024/02/15 10:33:02;;;;;;;4.78;2.67;;;;;;;;;;4894599;29;20269;-80
2024/02/15 10:35:30;;;;;;;4.53;3.13;;;;;;;;;;4894420;29;20573;-80
2024/02/15 10:38:07;;;;;;;4.82;3.13;;;;;;;;;;4893582;29;20676;-81
2024/02/15 10:40:36;;;;;;;6.05;3.00;;;;;;;;;;4894380;29;20208;-81
2024/02/15 10:43:05;;;;;;;5.30;3.03;;;;;;;;;;4894748;29;20215;-80
2024/02/15 10:45:32;;;;;;;4.65;2.85;;;;;;;;;;4893889;29;20209;-80
2024/02/15 10:47:59;;;;;;;4.88;3.33;;;;;;;;;;4894282;29;20648;-80
2024/02/15 10:50:27;;;;;;;4.32;2.90;;;;;;;;;;4893020;29;20332;-80
2024/02/15 10:52:56;;;;;;;5.88;3.28;;;;;;;;;;4893878;29;20533;-80
2024/02/15 10:55:26;;;;;;;5.65;3.03;;;;;;;;;;4892646;29;20205;-80
2024/02/15 10:57:57;;;;;;;6.85;3.10;;;;;;;;;;4893656;29;20277;-80
2024/02/15 11:00:31;;;;;;;4.68;2.85;;;;;;;;;;4893954;29;20228;-81
2024/02/15 11:03:04;;;;;;;5.35;2.85;;;;;;;;;;4893188;29;20694;-79
2024/02/15 11:05:34;;;;;;;4.20;2.70;;;;;;;;;;4893592;29;20593;-80
2024/02/15 11:08:01;;;;;;;3.90;2.60;;;;;;;;;;4893728;29;20734;-80
2024/02/15 11:10:29;;;;;;;5.85;3.20;;;;;;;;;;4892967;29;20264;-79
2024/02/15 11:12:58;;;;;;;4.65;2.70;;;;;;;;;;4893377;29;20729;-81
2024/02/15 11:15:48;;;;;;;4.90;2.90;;;;;;;;;;4892641;29;20213;-80
2024/02/15 11:18:35;;;;;;;4.45;2.90;;;;;;;;;;4893601;29;20205;-81
2024/02/15 11:21:04;;;;;;;4.70;2.70;;;;;;;;;;4889824;29;20303;-81
2024/02/15 11:23:32;;;;;;;4.75;3.25;;;;;;;;;;4893634;29;20209;-80
2024/02/15 11:26:00;;;;;;;5.18;2.75;;;;;;;;;;4893380;29;20269;-80
2024/02/15 11:28:41;;;;;;;5.05;2.92;;;;;;;;;;4893145;29;20212;-80
2024/02/15 11:31:13;;;;;;;4.68;3.10;;;;;;;;;;4892447;29;20209;-80
2024/02/15 11:33:40;;;;;;;6.15;2.90;;;;;;;;;;4892646;29;20208;-79
2024/02/15 11:36:11;;;;;;;4.15;2.80;;;;;;;;;;4891905;29;20232;-80
2024/02/15 11:38:41;;;;;;;5.10;2.80;;;;;;;;;;4891735;29;20685;-79
2024/02/15 11:41:08;;;;;;;5.18;2.90;;;;;;;;;;4891994;29;20201;-80
2024/02/15 11:44:03;;;;;;;5.32;2.47;;;;;;;;;;4892414;29;20212;-80
2024/02/15 11:46:32;;;;;;;4.80;2.67;;;;;;;;;;4891081;29;20653;-79
2024/02/15 11:49:00;;;;;;;5.03;2.70;;;;;;;;;;4891962;29;20205;-79
2024/02/15 11:51:36;;;;;;;4.00;2.78;;;;;;;;;;4891038;29;20288;-80
2024/02/15 11:54:08;;;;;;;3.72;2.50;;;;;;;;;;4891599;29;20239;-80
2024/02/15 11:57:04;;;;;;;3.65;2.53;;;;;;;;;;4889119;29;20200;-80
2024/02/15 11:59:42;;;;;;;4.07;2.50;;;;;;;;;;4892442;29;20201;-79
2024/02/15 12:18:44;;;;;;;4.03;2.40;;;;;;;;;;4891750;29;20216;-81
2024/02/15 12:21:14;;;;;;;5.07;2.90;;;;;;;;;;4891909;29;20209;-80
2024/02/15 12:23:42;;;;;;;3.97;2.80;;;;;;;;;;4892358;29;20237;-80
2024/02/15 12:26:10;;;;;;;5.13;2.15;;;;;;;;;;4891718;29;20601;-80
2024/02/15 12:28:38;;;;;;;3.67;2.50;;;;;;;;;;4892248;29;20240;-80
2024/02/15 12:31:07;;;;;;;4.22;2.75;;;;;;;;;;4892472;29;20236;-80
2024/02/15 12:33:35;;;;;;;5.00;2.63;;;;;;;;;;4892381;29;20288;-80
2024/02/15 12:36:06;;;;;;;3.35;2.45;;;;;;;;;;4892859;29;20653;-79
2024/02/15 12:38:34;;;;;;;5.68;2.78;;;;;;;;;;4892651;29;20297;-80
2024/02/15 12:41:02;;;;;;;3.85;2.50;;;;;;;;;;4892664;29;20209;-80
2024/02/15 12:43:29;;;;;;;5.72;2.63;;;;;;;;;;4892424;29;20317;-80
2024/02/15 12:45:57;;;;;;;4.97;2.42;;;;;;;;;;4892182;29;20308;-80
2024/02/15 12:48:24;;;;;;;6.07;2.50;;;;;;;;;;4891725;29;20665;-80
2024/02/15 12:50:52;;;;;;;3.80;2.65;;;;;;;;;;4892509;29;20595;-79
2024/02/15 12:53:23;;;;;;;4.07;2.55;;;;;;;;;;4891664;29;20232;-80
2024/02/15 12:55:54;;;;;;;4.93;2.60;;;;;;;;;;4892293;29;20202;-80
2024/02/15 12:58:24;;;;;;;3.67;2.55;;;;;;;;;;4891650;29;20209;-80
2024/02/15 13:00:51;;;;;;;5.22;2.40;;;;;;;;;;4892672;29;20662;-80
2024/02/15 13:03:19;;;;;;;5.03;2.50;;;;;;;;;;4891720;29;20216;-80
2024/02/15 13:05:47;;;;;;;5.20;2.88;;;;;;;;;;4892117;29;20291;-80
2024/02/15 13:08:17;;;;;;;3.72;2.50;;;;;;;;;;4891666;29;20590;-80
2024/02/15 13:10:45;;;;;;;3.85;2.40;;;;;;;;;;4891582;29;20252;-79
2024/02/15 13:13:13;;;;;;;5.53;2.80;;;;;;;;;;4891652;29;20288;-79
2024/02/15 13:15:42;;;;;;;4.38;2.70;;;;;;;;;;4891744;29;20209;-80
2024/02/15 13:18:13;;;;;;;4.03;2.55;;;;;;;;;;4891273;29;20300;-79
2024/02/15 13:20:40;;;;;;;4.90;2.78;;;;;;;;;;4893107;29;20240;-80
2024/02/15 13:23:14;;;;;;;3.58;2.50;;;;;;;;;;4895295;29;20284;-80
2024/02/15 13:25:43;;;;;;;4.03;2.72;;;;;;;;;;4895574;29;20229;-80
2024/02/15 13:28:10;;;;;;;4.82;2.70;;;;;;;;;;4895219;29;20232;-80
2024/02/15 13:30:37;;;;;;;4.10;2.53;;;;;;;;;;4895080;29;20316;-80
2024/02/15 13:33:06;;;;;;;4.88;2.80;;;;;;;;;;4895109;29;20593;-80
2024/02/15 13:35:34;;;;;;;3.83;2.58;;;;;;;;;;4895561;29;20296;-80
2024/02/15 13:38:02;;;;;;;2.88;2.28;;;;;;;;;;4895110;29;20205;-80
2024/02/15 13:40:31;;;;;;;3.15;2.45;;;;;;;;;;4894793;29;20217;-80
2024/02/15 13:42:59;;;;;;;4.38;3.00;;;;;;;;;;4895261;29;20209;-80
2024/02/15 13:45:32;;;;;;;5.07;2.67;;;;;;;;;;4894813;29;20243;-80
2024/02/15 13:48:00;;;;;;;4.10;2.75;;;;;;;;;;4894263;29;20300;-80
2024/02/15 13:50:30;;;;;;;4.85;2.80;;;;;;;;;;4894578;29;20288;-80
2024/02/15 13:52:57;;;;;;;4.22;2.70;;;;;;;;;;4895427;29;20220;-80
2024/02/15 13:55:25;;;;;;;5.20;2.72;;;;;;;;;;4894541;29;20245;-80
2024/02/15 13:57:53;;;;;;;6.82;2.70;;;;;;;;;;4894766;29;20208;-80
2024/02/15 14:00:29;;;;;;;3.25;2.50;;;;;;;;;;4895297;29;20587;-79
2024/02/15 14:02:57;;;;;;;3.90;2.60;;;;;;;;;;4894986;29;20328;-80
2024/02/15 14:05:25;;;;;;;4.03;2.65;;;;;;;;;;4894590;29;20277;-80
2024/02/15 14:07:56;;;;;;;4.30;2.80;;;;;;;;;;4895066;29;20277;-80
2024/02/15 14:10:24;;;;;;;7.57;3.10;;;;;;;;;;4894236;29;20228;-80
2024/02/15 14:12:52;;;;;;;5.53;2.70;;;;;;;;;;4894562;29;20639;-79
2024/02/15 14:15:19;;;;;;;5.00;2.75;;;;;;;;;;4893934;29;20213;-81
2024/02/15 14:17:47;;;;;;;6.70;2.92;;;;;;;;;;4894510;29;20292;-80
2024/02/15 14:20:15;;;;;;;6.18;2.90;;;;;;;;;;4894027;29;20292;-80
2024/02/15 14:22:43;;;;;;;4.18;2.40;;;;;;;;;;4894187;29;20220;-80
2024/02/15 14:25:13;;;;;;;6.63;2.97;;;;;;;;;;4894140;29;20825;-80
2024/02/15 14:27:40;;;;;;;5.03;2.65;;;;;;;;;;4894455;29;20213;-80
2024/02/15 14:33:04;;;;;;;4.35;2.47;;;;;;;;;;4893466;29;20212;-80
2024/02/15 14:35:35;;;;;;;3.58;2.38;;;;;;;;;;4894486;29;20567;-81
2024/02/15 14:38:05;;;;;;;6.68;2.80;;;;;;;;;;4894922;29;20209;-80
2024/02/15 14:40:34;;;;;;;4.82;2.90;;;;;;;;;;4894209;29;20209;-80
2024/02/15 14:43:02;;;;;;;4.72;2.70;;;;;;;;;;4894596;29;20211;-79
2024/02/15 14:45:30;;;;;;;5.07;2.67;;;;;;;;;;4893585;29;20249;-80
2024/02/15 14:47:57;;;;;;;6.10;2.67;;;;;;;;;;4893838;29;20275;-79
2024/02/15 14:50:25;;;;;;;4.35;2.67;;;;;;;;;;4893275;29;20237;-80
2024/02/15 14:52:53;;;;;;;6.47;2.85;;;;;;;;;;4893877;29;20215;-79
2024/02/15 14:55:20;;;;;;;4.20;2.65;;;;;;;;;;4893836;29;20201;-80
2024/02/15 14:57:50;;;;;;;5.15;2.75;;;;;;;;;;4894014;29;20318;-80
2024/02/15 15:00:19;;;;;;;5.32;2.78;;;;;;;;;;4894391;29;20228;-79
2024/02/15 15:02:47;;;;;;;5.25;2.85;;;;;;;;;;4893905;29;20581;-79
2024/02/15 15:13:33;;;;;;;3.78;2.30;;;;;;;;;;4893320;29;20204;-79
2024/02/15 15:16:00;;;;;;;4.32;2.60;;;;;;;;;;4896231;29;20201;-79
2024/02/15 15:18:28;;;;;;;3.45;2.72;;;;;;;;;;4892816;29;20391;-79
2024/02/15 15:20:56;;;;;;;12.65;2.55;;;;;;;;;;4895684;29;20209;-79
2024/02/15 15:23:24;;;;;;;6.32;2.53;;;;;;;;;;4886045;29;20300;-79
2024/02/15 15:25:52;;;;;;;3.92;2.67;;;;;;;;;;4893893;29;20268;-79
2024/02/15 15:28:19;;;;;;;7.18;3.20;;;;;;;;;;4894005;29;20300;-80
2024/02/15 15:30:50;;;;;;;4.20;2.60;;;;;;;;;;4894830;29;20237;-80